Terminal Aerodrome Forecast
Issued by NWS

Home | Current Version | Previous Version | Text Only | Print | Product List | Glossary On
Versions: 1 2 3 4 5 6 7 8 9 10 11 12 13 14 15 16 17 18 19 20 21 22
000
FTUS44 KLZK 161500 AAB
TAFHRO
TAF AMD
KHRO 161529Z 1615/1712 03005KT 2SM BR OVC003
     FM161630 04005KT P6SM OVC006
     FM162100 05005KT P6SM BKN012 OVC080
     FM170100 14003KT P6SM SCT060 SCT250
     FM170800 14004KT P6SM BKN060=

USA.gov is the U.S. government's official web portal to all federal, state and local government web resources and services.